createdAt,value
2022-11-28T00:03:07.573Z,95891.03
2022-11-28T00:08:09.632Z,95891.81
2022-11-28T00:13:11.467Z,95885.25
2022-11-28T00:18:13.118Z,95875.22
2022-11-28T00:23:14.665Z,95858.94
2022-11-28T00:28:16.258Z,95867.78
2022-11-28T00:33:17.888Z,95871.28
2022-11-28T00:38:19.469Z,95869.28
2022-11-28T00:43:21.057Z,95871.19
2022-11-28T00:48:23.306Z,95851.44
2022-11-28T00:53:24.951Z,95854.16
2022-11-28T00:58:26.555Z,95839.84
2022-11-28T01:03:28.156Z,95833.53
2022-11-28T01:08:30.211Z,95826.13
2022-11-28T01:13:31.860Z,95823.00
2022-11-28T01:18:33.442Z,95840.03
2022-11-28T01:23:35.374Z,95824.91
2022-11-28T01:28:36.959Z,95807.81
2022-11-28T01:33:38.524Z,95811.31
2022-11-28T01:38:41.221Z,95805.91
2022-11-28T01:44:01.550Z,95807.81
2022-11-28T01:49:13.316Z,95804.31
2022-11-28T01:54:16.561Z,95803.91
2022-11-28T01:59:20.476Z,95808.94
2022-11-28T02:04:25.770Z,95805.47
2022-11-28T02:09:27.368Z,95784.56
2022-11-28T02:15:03.138Z,95782.66
2022-11-28T02:20:38.082Z,95769.03
2022-11-28T02:26:15.367Z,95760.47
2022-11-28T02:31:36.178Z,95770.19
2022-11-28T02:37:03.478Z,95770.19
2022-11-28T02:42:15.166Z,95774.81
2022-11-28T02:47:32.125Z,95778.31
2022-11-28T02:52:39.249Z,95783.34
2022-11-28T02:57:53.502Z,95777.59
2022-11-28T03:03:25.485Z,95781.88
2022-11-28T03:08:42.553Z,95768.31
2022-11-28T03:13:59.673Z,95777.22
2022-11-28T03:19:20.291Z,95766.41
2022-11-28T03:24:24.991Z,95754.00
2022-11-28T03:29:41.792Z,95752.84
2022-11-28T03:34:47.602Z,95735.06
2022-11-28T03:39:54.148Z,95733.84
2022-11-28T03:45:05.923Z,95738.81
2022-11-28T03:50:16.195Z,95738.81
2022-11-28T03:55:24.817Z,95728.78
2022-11-28T04:00:27.110Z,95726.06
2022-11-28T04:05:49.445Z,95724.50
2022-11-28T04:10:59.739Z,95716.81
2022-11-28T04:16:11.580Z,95700.19
2022-11-28T04:21:23.300Z,95686.66
2022-11-28T04:26:32.207Z,95678.13
2022-11-28T04:31:35.664Z,95681.97
2022-11-28T04:36:41.061Z,95673.84
2022-11-28T04:41:50.867Z,95671.91
2022-11-28T04:46:55.781Z,95664.16
2022-11-28T04:52:10.020Z,95662.56
2022-11-28T04:57:21.704Z,95662.56
2022-11-28T05:02:24.960Z,95671.84
2022-11-28T05:07:26.674Z,95658.66
2022-11-28T05:12:28.261Z,95658.66
2022-11-28T05:17:30.177Z,95652.03
2022-11-28T05:22:31.691Z,95662.03
2022-11-28T05:27:33.300Z,95643.84
2022-11-28T05:32:36.272Z,95643.06
2022-11-28T05:37:38.159Z,95649.63
2022-11-28T05:42:39.703Z,95639.59
2022-11-28T05:47:41.301Z,95630.66
2022-11-28T05:52:42.843Z,95645.00
2022-11-28T05:57:44.361Z,95635.38
2022-11-28T06:02:45.895Z,95634.22
2022-11-28T06:07:47.534Z,95636.50
2022-11-28T06:12:49.593Z,95628.03
2022-11-28T06:17:51.130Z,95625.75
2022-11-28T06:22:52.760Z,95624.97
2022-11-28T06:27:54.305Z,95622.25
2022-11-28T06:32:55.866Z,95614.94
2022-11-28T06:37:57.542Z,95562.69
2022-11-28T06:42:59.054Z,95573.13
2022-11-28T06:48:01.479Z,95576.19
2022-11-28T06:53:03.010Z,95576.53
2022-11-28T06:58:04.563Z,95587.72
2022-11-28T07:03:06.083Z,95595.47
2022-11-28T07:08:07.723Z,95633.81
2022-11-28T07:13:09.286Z,95618.72
2022-11-28T07:18:10.793Z,95594.78
2022-11-28T07:23:12.366Z,95599.47
2022-11-28T07:28:13.903Z,95574.31
2022-11-28T07:33:15.781Z,95585.94
2022-11-28T07:38:17.315Z,95576.22
2022-11-28T07:43:18.818Z,95584.00
2022-11-28T07:48:20.378Z,95609.22
2022-11-28T07:53:22.176Z,95577.44
2022-11-28T07:58:23.819Z,95604.50
2022-11-28T08:03:25.786Z,95615.00
2022-11-28T08:08:31.117Z,95624.31
2022-11-28T08:13:38.787Z,95638.16
2022-11-28T08:18:41.607Z,95644.63
2022-11-28T08:23:47.954Z,95655.31
2022-11-28T08:40:25.994Z,95642.31
2022-11-28T08:45:27.539Z,95654.75
2022-11-28T08:50:29.198Z,95664.50
2022-11-28T08:55:41.766Z,95652.59
2022-11-28T09:01:25.907Z,95622.09
2022-11-28T09:06:50.716Z,95593.94
2022-11-28T09:11:53.406Z,95597.50
2022-11-28T09:16:55.139Z,95616.88
2022-11-28T09:21:58.089Z,95617.00
2022-11-28T09:26:59.978Z,95612.44
2022-11-28T09:32:01.576Z,95613.69
2022-11-28T09:37:05.015Z,95606.84
2022-11-28T09:42:17.578Z,95605.41
2022-11-28T09:47:26.361Z,95626.44
2022-11-28T09:52:45.810Z,95605.94
2022-11-28T09:57:49.733Z,95608.34
2022-11-28T10:03:11.921Z,95612.69
2022-11-28T10:08:28.787Z,95603.09
2022-11-28T10:14:08.949Z,95601.63
2022-11-28T10:19:31.692Z,95604.41
2022-11-28T10:24:48.361Z,95597.53
2022-11-28T10:30:04.614Z,95592.59
2022-11-28T10:35:13.784Z,95581.84
2022-11-28T10:40:34.191Z,95579.63
2022-11-28T10:46:04.211Z,95559.88
2022-11-28T10:51:38.389Z,95568.06
2022-11-28T10:56:45.955Z,95561.88
2022-11-28T11:01:50.439Z,95568.13
2022-11-28T11:07:16.428Z,95569.31
2022-11-28T11:12:27.419Z,95569.00
2022-11-28T11:17:36.581Z,95565.16
2022-11-28T11:22:38.893Z,95562.09
2022-11-28T11:27:49.850Z,95559.44
2022-11-28T11:32:51.945Z,95562.19
2022-11-28T11:37:55.511Z,95574.25
2022-11-28T11:42:59.709Z,95580.88
2022-11-28T11:48:03.890Z,95578.59
2022-11-28T11:53:15.312Z,95578.25
2022-11-28T11:58:25.510Z,95569.72
2022-11-28T12:03:42.023Z,95579.47
2022-11-28T12:08:51.071Z,95575.25
2022-11-28T12:13:53.360Z,95568.28
2022-11-28T12:18:57.983Z,95569.13
2022-11-28T12:24:13.941Z,95566.03
2022-11-28T12:29:40.274Z,95564.50
2022-11-28T12:35:09.233Z,95561.06
2022-11-28T12:40:38.216Z,95565.75
2022-11-28T12:46:15.197Z,95554.88
2022-11-28T12:51:49.321Z,95555.25
2022-11-28T12:57:11.311Z,95555.66
2022-11-28T13:02:55.785Z,95552.94
2022-11-28T13:08:03.538Z,95534.34
2022-11-28T13:13:17.851Z,95535.56
2022-11-28T13:18:40.596Z,95540.22
2022-11-28T13:23:56.201Z,95544.44
2022-11-28T13:29:19.456Z,95549.88
2022-11-28T13:34:21.892Z,95546.34
2022-11-28T13:39:33.402Z,95546.00
2022-11-28T13:44:50.076Z,95556.84
2022-11-28T13:49:51.649Z,95558.03
2022-11-28T13:54:56.416Z,95559.16
2022-11-28T14:00:20.969Z,95548.28
2022-11-28T14:05:38.023Z,95549.03
2022-11-28T14:11:05.969Z,95547.81
2022-11-28T14:16:17.830Z,95551.69
2022-11-28T14:21:55.866Z,95552.06
2022-11-28T14:27:00.869Z,95553.59
2022-11-28T14:37:29.191Z,95549.69
2022-11-28T14:48:16.982Z,95562.78
2022-11-28T14:53:34.363Z,95566.66
2022-11-28T14:58:36.159Z,95563.09
2022-11-28T15:03:56.988Z,95564.63
2022-11-28T15:09:14.201Z,95569.66
2022-11-28T15:14:23.460Z,95561.09
2022-11-28T15:19:30.887Z,95559.91
2022-11-28T15:24:38.153Z,95560.25
2022-11-28T15:29:39.705Z,95557.94
2022-11-28T15:34:41.545Z,95561.78
2022-11-28T15:39:46.766Z,95560.59
2022-11-28T15:44:56.306Z,95564.03
2022-11-28T15:50:11.456Z,95567.88
2022-11-28T15:55:17.099Z,95568.69
2022-11-28T16:00:21.859Z,95564.38
2022-11-28T16:05:23.710Z,95570.97
2022-11-28T16:10:31.863Z,95565.91
2022-11-28T16:15:33.487Z,95574.44
2022-11-28T16:20:37.078Z,95582.16
2022-11-28T16:25:38.886Z,95582.50
2022-11-28T16:30:48.056Z,95573.16
2022-11-28T16:35:49.891Z,95566.97
2022-11-28T16:40:59.001Z,95577.81
2022-11-28T16:46:03.514Z,95579.38
2022-11-28T16:51:11.106Z,95564.69
2022-11-28T16:56:26.088Z,95567.38
2022-11-28T17:01:29.194Z,95565.41
2022-11-28T17:06:39.375Z,95562.28
2022-11-28T17:11:44.829Z,95570.34
2022-11-28T17:16:46.597Z,95572.69
2022-11-28T17:21:51.734Z,95570.31
2022-11-28T17:26:54.851Z,95560.25
2022-11-28T17:31:58.821Z,95565.66
2022-11-28T17:37:01.999Z,95562.97
2022-11-28T17:42:04.562Z,95569.53
2022-11-28T17:47:06.107Z,95580.38
2022-11-28T17:52:09.456Z,95576.91
2022-11-28T17:57:11.325Z,95570.66
2022-11-28T18:02:13.426Z,95572.59
2022-11-28T18:07:15.860Z,95576.09
2022-11-28T18:12:17.503Z,95582.69
2022-11-28T18:17:19.092Z,95578.41
2022-11-28T18:22:20.699Z,95567.56
2022-11-28T18:27:22.707Z,95566.75
2022-11-28T18:32:24.548Z,95566.00
2022-11-28T18:37:26.225Z,95567.16
2022-11-28T18:42:27.808Z,95571.00
2022-11-28T18:47:29.479Z,95569.84
2022-11-28T18:52:32.971Z,95572.94
2022-11-28T18:57:35.075Z,95566.31
2022-11-28T19:02:36.767Z,95569.41
2022-11-28T19:07:38.380Z,95567.81
2022-11-28T19:12:41.075Z,95579.81
2022-11-28T19:17:42.687Z,95572.03
2022-11-28T19:22:44.283Z,95565.06
2022-11-28T19:27:45.970Z,95577.47
2022-11-28T19:32:47.974Z,95562.34
2022-11-28T19:37:51.388Z,95563.13
2022-11-28T19:42:52.986Z,95567.00
2022-11-28T19:47:54.538Z,95579.41
2022-11-28T19:52:56.232Z,95578.63
2022-11-28T19:57:57.883Z,95572.41
2022-11-28T20:02:59.542Z,95577.03
2022-11-28T20:08:01.422Z,95575.50
2022-11-28T20:13:03.332Z,95583.63
2022-11-28T20:18:04.922Z,95584.78
2022-11-28T20:23:06.771Z,95583.19
2022-11-28T20:28:08.448Z,95584.72
2022-11-28T20:33:10.043Z,95583.59
2022-11-28T20:38:12.374Z,95587.00
2022-11-28T20:43:13.948Z,95593.19
2022-11-28T20:48:15.568Z,95593.56
2022-11-28T20:53:19.892Z,95595.13
2022-11-28T20:58:25.298Z,95592.00
2022-11-28T21:03:27.079Z,95597.81
2022-11-28T21:08:31.275Z,95595.09
2022-11-28T21:13:33.146Z,95596.22
2022-11-28T21:18:36.488Z,95597.03
2022-11-28T21:23:38.698Z,95598.53
2022-11-28T21:28:42.186Z,95594.66
2022-11-28T21:33:48.059Z,95589.25
2022-11-28T21:38:54.417Z,95579.13
2022-11-28T21:43:56.703Z,95590.31
2022-11-28T21:48:58.686Z,95582.56
2022-11-28T21:54:00.264Z,95579.06
2022-11-28T21:59:01.937Z,95574.03
2022-11-28T22:04:04.510Z,95571.66
2022-11-28T22:09:09.393Z,95579.03
2022-11-28T22:14:12.234Z,95578.25
2022-11-28T22:19:14.066Z,95575.53
2022-11-28T22:24:17.723Z,95585.22
2022-11-28T22:29:19.329Z,95592.56
2022-11-28T22:34:21.093Z,95577.09
2022-11-28T22:39:22.913Z,95580.94
2022-11-28T22:44:24.488Z,95583.66
2022-11-28T22:49:27.380Z,95582.88
2022-11-28T22:54:28.966Z,95584.00
2022-11-28T22:59:33.633Z,95579.38
2022-11-28T23:04:35.380Z,95584.00
2022-11-28T23:09:38.061Z,95581.72
2022-11-28T23:14:42.330Z,95583.28
2022-11-28T23:19:44.406Z,95583.66
2022-11-28T23:24:46.114Z,95588.31
2022-11-28T23:29:47.997Z,95584.78
2022-11-28T23:34:49.587Z,95583.22
2022-11-28T23:39:51.253Z,95578.16
2022-11-28T23:44:52.901Z,95576.97
2022-11-28T23:49:54.481Z,95588.22
2022-11-28T23:54:56.150Z,95582.03
